Fazenda Nova, Brazil
Current Conditions -  °F | °C
As of 2:00 PM on Thursday 18 Dec 2014 (Local Time) from SBGO Reporting Station
Scattered Clouds Scattered Clouds  
Wind Chill: 84°   Ceiling: Unl
Heat Index: 85°   Visibility: 6mi
Dew Point: 63°   Wind: 10mph
Humidity: 48%   Direction: 10°N
Pressure: 29.91"   Gusts: NA
Location:  16.18°S, 50.78°W
Report Text: SBGO 181600Z 01009KT 9999 SCT036 FEW040TCU 29/17 Q1013
Loading
Personal Weather Stations






























Interactive Weather Map New forecast layout! Learn more

10-Day Weather Forecast

Advertisements
Track Severe Weather on mobile